createdAt,value
2022-10-23T00:00:41.114Z,0
2022-10-23T00:01:44.138Z,0
2022-10-23T00:02:48.052Z,0
2022-10-23T00:04:22.766Z,0
2022-10-23T00:05:25.697Z,0
2022-10-23T00:06:28.528Z,0
2022-10-23T00:08:03.308Z,0
2022-10-23T00:09:06.087Z,0
2022-10-23T00:10:08.756Z,0
2022-10-23T00:11:43.553Z,0
2022-10-23T00:12:47.149Z,0
2022-10-23T00:13:49.985Z,0
2022-10-23T00:15:24.611Z,0
2022-10-23T00:16:27.620Z,0
2022-10-23T00:17:30.597Z,0
2022-10-23T00:19:06.179Z,0
2022-10-23T00:20:09.086Z,0
2022-10-23T00:21:12.001Z,0
2022-10-23T00:22:46.964Z,0
2022-10-23T00:23:50.050Z,0
2022-10-23T00:24:52.827Z,0
2022-10-23T00:26:27.430Z,0
2022-10-23T00:27:30.296Z,0
2022-10-23T00:28:33.272Z,0
2022-10-23T00:30:08.040Z,0
2022-10-23T00:31:11.027Z,0
2022-10-23T00:32:13.831Z,0
2022-10-23T00:33:48.475Z,0
2022-10-23T00:34:51.673Z,0
2022-10-23T00:35:54.598Z,0
2022-10-23T00:37:29.376Z,0
2022-10-23T00:38:32.255Z,0
2022-10-23T00:39:35.324Z,0
2022-10-23T00:41:10.029Z,0
2022-10-23T00:42:13.005Z,0
2022-10-23T00:43:15.941Z,0
2022-10-23T00:44:50.410Z,0
2022-10-23T00:45:53.086Z,0
2022-10-23T00:46:55.778Z,0
2022-10-23T00:48:30.447Z,0
2022-10-23T00:49:34.503Z,0
2022-10-23T00:50:37.720Z,0
2022-10-23T00:52:12.353Z,0
2022-10-23T00:53:15.139Z,0
2022-10-23T00:54:47.733Z,0
2022-10-23T00:56:22.341Z,0
2022-10-23T00:57:25.408Z,0
2022-10-23T00:58:28.408Z,0
2022-10-23T01:00:40.500Z,0
2022-10-23T01:01:44.962Z,0
2022-10-23T01:02:49.205Z,0
2022-10-23T01:04:23.979Z,0
2022-10-23T01:05:26.846Z,0
2022-10-23T01:06:29.692Z,0
2022-10-23T01:08:04.802Z,0
2022-10-23T01:09:07.650Z,0
2022-10-23T01:10:10.484Z,0
2022-10-23T01:11:45.238Z,0
2022-10-23T01:12:48.082Z,0
2022-10-23T01:13:51.139Z,0
2022-10-23T01:15:25.796Z,0
2022-10-23T01:16:28.501Z,0
2022-10-23T01:17:31.299Z,0
2022-10-23T01:19:05.876Z,0
2022-10-23T01:20:08.571Z,0
2022-10-23T01:21:11.375Z,0
2022-10-23T01:22:46.838Z,0
2022-10-23T01:23:49.507Z,0
2022-10-23T01:24:52.452Z,0
2022-10-23T01:26:27.064Z,0
2022-10-23T01:27:29.933Z,0
2022-10-23T01:28:32.707Z,0
2022-10-23T01:30:07.252Z,0
2022-10-23T01:31:09.928Z,0
2022-10-23T01:32:12.677Z,0
2022-10-23T01:33:48.400Z,0
2022-10-23T01:34:51.346Z,0
2022-10-23T01:35:54.249Z,0
2022-10-23T01:37:28.914Z,0
2022-10-23T01:38:31.551Z,0
2022-10-23T01:39:34.724Z,0
2022-10-23T01:41:09.231Z,0
2022-10-23T01:42:12.149Z,0
2022-10-23T01:43:14.977Z,0
2022-10-23T01:44:49.481Z,0
2022-10-23T01:45:52.284Z,0
2022-10-23T01:46:55.011Z,0
2022-10-23T01:48:29.630Z,0
2022-10-23T01:49:32.532Z,0
2022-10-23T01:50:35.363Z,0
2022-10-23T01:52:09.945Z,0
2022-10-23T01:53:12.749Z,0
2022-10-23T01:54:15.440Z,0
2022-10-23T01:55:50.700Z,0
2022-10-23T01:56:53.595Z,0
2022-10-23T01:57:57.031Z,0
2022-10-23T01:59:31.627Z,0
2022-10-23T02:00:39.869Z,0
2022-10-23T02:01:44.030Z,0
2022-10-23T02:02:47.369Z,0
2022-10-23T02:04:21.935Z,0
2022-10-23T02:05:24.784Z,0
2022-10-23T02:06:27.653Z,0
2022-10-23T02:08:03.011Z,0
2022-10-23T02:09:05.882Z,0
2022-10-23T02:10:08.855Z,0
2022-10-23T02:11:43.688Z,0
2022-10-23T02:12:46.662Z,0
2022-10-23T02:13:49.388Z,0
2022-10-23T02:15:24.358Z,0
2022-10-23T02:16:27.156Z,0
2022-10-23T02:17:30.055Z,0
2022-10-23T02:19:04.861Z,0
2022-10-23T02:20:07.569Z,0
2022-10-23T02:21:10.638Z,0
2022-10-23T02:22:45.748Z,0
2022-10-23T02:23:50.425Z,0
2022-10-23T02:24:55.258Z,0
2022-10-23T02:26:30.031Z,0
2022-10-23T02:27:33.045Z,0
2022-10-23T02:28:35.775Z,0
2022-10-23T02:30:10.543Z,0
2022-10-23T02:31:13.268Z,0
2022-10-23T02:32:15.991Z,0
2022-10-23T02:33:51.335Z,0
2022-10-23T02:34:54.182Z,0
2022-10-23T02:35:56.856Z,0
2022-10-23T02:37:32.696Z,0
2022-10-23T02:38:35.501Z,0
2022-10-23T02:39:38.319Z,0
2022-10-23T02:41:12.755Z,0
2022-10-23T02:42:15.490Z,0
2022-10-23T02:43:18.302Z,0
2022-10-23T02:44:53.231Z,0
2022-10-23T02:45:56.190Z,0
2022-10-23T02:46:59.119Z,0
2022-10-23T02:48:33.721Z,0
2022-10-23T02:49:36.593Z,0
2022-10-23T02:50:39.363Z,0
2022-10-23T02:52:14.101Z,0
2022-10-23T02:53:16.885Z,0
2022-10-23T02:54:19.730Z,0
2022-10-23T02:55:54.452Z,0
2022-10-23T02:57:01.107Z,0
2022-10-23T02:58:04.842Z,0
2022-10-23T02:59:39.362Z,0
2022-10-23T03:00:40.704Z,0
2022-10-23T03:01:45.048Z,0
2022-10-23T03:02:48.574Z,0
2022-10-23T03:04:23.219Z,0
2022-10-23T03:05:25.910Z,0
2022-10-23T03:06:28.850Z,0
2022-10-23T03:08:03.846Z,0
2022-10-23T03:09:06.573Z,0
2022-10-23T03:10:09.233Z,0
2022-10-23T03:11:44.074Z,0
2022-10-23T03:12:47.347Z,0
2022-10-23T03:13:50.156Z,0
2022-10-23T03:15:25.063Z,0
2022-10-23T03:16:27.753Z,0
2022-10-23T03:17:30.583Z,0
2022-10-23T03:19:05.370Z,0
2022-10-23T03:20:08.285Z,0
2022-10-23T03:21:11.224Z,0
2022-10-23T03:22:46.632Z,0
2022-10-23T03:23:49.417Z,0
2022-10-23T03:24:52.405Z,0
2022-10-23T03:26:27.223Z,0
2022-10-23T03:27:30.396Z,0
2022-10-23T03:28:33.354Z,0
2022-10-23T03:30:07.921Z,0
2022-10-23T03:31:10.754Z,0
2022-10-23T03:32:13.650Z,0
2022-10-23T03:33:49.072Z,0
2022-10-23T03:34:52.041Z,0
2022-10-23T03:35:55.149Z,0
2022-10-23T03:37:29.925Z,0
2022-10-23T03:38:32.903Z,0
2022-10-23T03:39:35.899Z,0
2022-10-23T03:41:10.740Z,0
2022-10-23T03:42:13.826Z,0
2022-10-23T03:43:16.720Z,0
2022-10-23T03:44:51.381Z,0
2022-10-23T03:45:54.092Z,0
2022-10-23T03:46:56.760Z,0
2022-10-23T03:48:31.389Z,0
2022-10-23T03:49:34.035Z,0
2022-10-23T03:50:36.721Z,0
2022-10-23T03:52:11.360Z,0
2022-10-23T03:53:14.529Z,0
2022-10-23T03:54:17.329Z,0
2022-10-23T03:55:51.909Z,0
2022-10-23T03:56:59.342Z,0
2022-10-23T03:58:02.198Z,0
2022-10-23T03:59:36.945Z,0
2022-10-23T04:00:40.094Z,0
2022-10-23T04:01:44.351Z,0
2022-10-23T04:02:48.683Z,0
2022-10-23T04:04:23.202Z,0
2022-10-23T04:06:09.563Z,0
2022-10-23T04:07:13.040Z,0
2022-10-23T04:08:19.212Z,0
2022-10-23T04:09:55.248Z,0
2022-10-23T04:10:58.534Z,0
2022-10-23T04:12:01.452Z,0
2022-10-23T04:13:36.577Z,0
2022-10-23T04:14:39.344Z,0
2022-10-23T04:15:42.377Z,0
2022-10-23T04:17:17.275Z,0
2022-10-23T04:18:20.026Z,0
2022-10-23T04:19:22.936Z,0
2022-10-23T04:20:57.676Z,0
2022-10-23T04:22:00.532Z,0
2022-10-23T04:23:04.151Z,0
2022-10-23T04:24:38.850Z,0
2022-10-23T04:25:41.848Z,0
2022-10-23T04:26:45.162Z,0
2022-10-23T04:28:19.909Z,0
2022-10-23T04:29:22.705Z,0
2022-10-23T04:30:27.182Z,0
2022-10-23T04:32:02.073Z,0
2022-10-23T04:33:04.963Z,0
2022-10-23T04:34:07.833Z,0
2022-10-23T04:35:42.694Z,0
2022-10-23T04:36:45.793Z,0
2022-10-23T04:37:49.346Z,0
2022-10-23T04:39:23.972Z,0
2022-10-23T04:40:26.946Z,0
2022-10-23T04:41:29.906Z,0
2022-10-23T04:43:05.451Z,0
2022-10-23T04:44:08.262Z,0
2022-10-23T04:45:11.069Z,0
2022-10-23T04:46:45.772Z,0
2022-10-23T04:47:48.626Z,0
2022-10-23T04:48:56.495Z,0
2022-10-23T04:50:31.557Z,0
2022-10-23T04:51:34.595Z,0
2022-10-23T04:52:37.495Z,0
2022-10-23T04:54:11.935Z,0
2022-10-23T04:55:14.913Z,0
2022-10-23T04:56:17.943Z,0
2022-10-23T04:57:52.565Z,0
2022-10-23T04:58:55.389Z,0
2022-10-23T04:59:58.493Z,0
2022-10-23T05:00:40.870Z,0
2022-10-23T05:01:44.942Z,0
2022-10-23T05:02:48.476Z,0
2022-10-23T05:04:22.941Z,0
2022-10-23T05:05:25.733Z,0
2022-10-23T05:06:28.568Z,0
2022-10-23T05:08:03.756Z,0
2022-10-23T05:09:06.771Z,0
2022-10-23T05:10:09.564Z,0
2022-10-23T05:11:44.540Z,0
2022-10-23T05:12:47.400Z,0
2022-10-23T05:13:50.303Z,0
2022-10-23T05:15:31.275Z,0
2022-10-23T05:16:34.387Z,0
2022-10-23T05:17:37.094Z,0
2022-10-23T05:19:11.913Z,0
2022-10-23T05:20:15.241Z,0
2022-10-23T05:21:18.190Z,0
2022-10-23T05:22:53.034Z,0
2022-10-23T05:23:56.301Z,0
2022-10-23T05:25:02.552Z,0
2022-10-23T05:26:37.392Z,0
2022-10-23T05:27:40.578Z,0
2022-10-23T05:28:43.590Z,0
2022-10-23T05:30:18.288Z,0
2022-10-23T05:31:21.317Z,0
2022-10-23T05:32:24.428Z,0
2022-10-23T05:33:59.492Z,0
2022-10-23T05:35:02.543Z,0
2022-10-23T05:36:05.282Z,0
2022-10-23T05:37:39.804Z,0
2022-10-23T05:38:42.653Z,0
2022-10-23T05:39:45.496Z,0
2022-10-23T05:41:20.081Z,0
2022-10-23T05:42:23.196Z,0
2022-10-23T05:43:26.275Z,0
2022-10-23T05:45:00.872Z,0
2022-10-23T05:46:03.807Z,0
2022-10-23T05:47:06.502Z,0
2022-10-23T05:50:02.491Z,0
2022-10-23T05:51:05.364Z,0
2022-10-23T05:52:40.281Z,0
2022-10-23T05:53:48.055Z,0
2022-10-23T05:54:50.972Z,0
2022-10-23T05:56:25.668Z,0
2022-10-23T05:57:28.721Z,0
2022-10-23T05:58:31.671Z,0
2022-10-23T06:00:40.342Z,0
2022-10-23T06:01:44.085Z,0
2022-10-23T06:02:47.607Z,0
2022-10-23T06:04:22.633Z,0
2022-10-23T06:05:25.592Z,0
2022-10-23T06:06:28.799Z,0
2022-10-23T06:08:04.445Z,0
2022-10-23T06:09:07.281Z,0
2022-10-23T06:10:10.090Z,0
2022-10-23T06:11:44.902Z,0
2022-10-23T06:12:47.770Z,0
2022-10-23T06:13:50.890Z,0
2022-10-23T06:15:25.480Z,0
2022-10-23T06:16:32.461Z,0
2022-10-23T06:17:35.610Z,0
2022-10-23T06:19:10.307Z,0
2022-10-23T06:20:13.109Z,0
2022-10-23T06:21:16.114Z,0
2022-10-23T06:22:51.584Z,0
2022-10-23T06:23:54.565Z,0
2022-10-23T06:24:57.466Z,0
2022-10-23T06:26:31.982Z,0
2022-10-23T06:27:34.873Z,0
2022-10-23T06:28:42.574Z,0
2022-10-23T06:30:17.040Z,0
2022-10-23T06:31:19.792Z,0
2022-10-23T06:32:22.746Z,0
2022-10-23T06:33:57.771Z,0
2022-10-23T06:35:00.701Z,0
2022-10-23T06:36:03.408Z,0
2022-10-23T06:37:38.169Z,0
2022-10-23T06:38:41.056Z,0
2022-10-23T06:39:48.918Z,0
2022-10-23T06:41:24.009Z,0
2022-10-23T06:42:27.227Z,0
2022-10-23T06:43:30.275Z,0
2022-10-23T06:45:12.094Z,0
2022-10-23T06:46:14.907Z,0
2022-10-23T06:48:53.713Z,0
2022-10-23T06:49:56.883Z,0
2022-10-23T06:50:59.663Z,0
2022-10-23T06:53:08.627Z,0
2022-10-23T06:54:11.504Z,0
2022-10-23T06:55:14.295Z,0
2022-10-23T06:56:52.975Z,0
2022-10-23T06:57:56.505Z,0
2022-10-23T06:58:59.707Z,0
2022-10-23T07:00:41.335Z,0
2022-10-23T07:01:46.329Z,0
2022-10-23T07:02:49.889Z,0
2022-10-23T07:04:24.864Z,0
2022-10-23T07:05:32.703Z,0
2022-10-23T07:06:35.749Z,0
2022-10-23T07:08:10.510Z,0.435
2022-10-23T07:09:13.580Z,0.435
2022-10-23T07:10:16.809Z,0
2022-10-23T07:11:51.543Z,0
2022-10-23T07:12:54.888Z,0.435
2022-10-23T07:13:57.760Z,0
2022-10-23T07:15:32.732Z,0
2022-10-23T07:16:35.672Z,0
2022-10-23T07:17:38.602Z,0
2022-10-23T07:19:13.107Z,0
2022-10-23T07:20:15.916Z,0
2022-10-23T07:21:18.772Z,0
2022-10-23T07:22:53.953Z,0
2022-10-23T07:23:56.833Z,0
2022-10-23T07:24:59.578Z,0
2022-10-23T07:26:34.206Z,0
2022-10-23T07:27:37.141Z,0.435
2022-10-23T07:28:40.055Z,0.435
2022-10-23T07:30:14.643Z,0.435
2022-10-23T07:31:17.646Z,0.435
2022-10-23T07:32:20.590Z,0.435
2022-10-23T07:33:55.139Z,0.435
2022-10-23T07:34:58.320Z,0.435
2022-10-23T07:36:06.546Z,0.435
2022-10-23T07:37:42.207Z,0.435
2022-10-23T07:38:45.126Z,0.435
2022-10-23T07:39:48.035Z,0.435
2022-10-23T07:41:28.456Z,0.435
2022-10-23T07:42:31.443Z,0.435
2022-10-23T07:43:34.611Z,0.585
2022-10-23T07:45:09.135Z,0.435
2022-10-23T07:46:11.994Z,0.585
2022-10-23T07:47:14.919Z,0.585
2022-10-23T07:48:50.192Z,0.435
2022-10-23T07:49:53.088Z,0.435
2022-10-23T07:50:55.884Z,0.585
2022-10-23T07:52:35.037Z,0.585
2022-10-23T07:53:38.915Z,0.435
2022-10-23T07:54:41.959Z,0.435
2022-10-23T07:56:16.840Z,0.585
2022-10-23T07:57:19.724Z,0.585
2022-10-23T07:58:22.687Z,0.435
2022-10-23T08:00:00.625Z,0.435
2022-10-23T08:00:41.513Z,0.435
2022-10-23T08:01:45.245Z,0.435
2022-10-23T08:02:49.027Z,0.435
2022-10-23T08:04:23.825Z,0.435
2022-10-23T08:05:26.936Z,0.585
2022-10-23T08:06:29.772Z,0.435
2022-10-23T08:08:04.419Z,0.585
2022-10-23T08:09:12.268Z,0.585
2022-10-23T08:10:15.052Z,0.585
2022-10-23T08:11:49.846Z,0.585
2022-10-23T08:12:53.468Z,0.735
2022-10-23T08:13:56.356Z,0.735
2022-10-23T08:15:31.123Z,0.735
2022-10-23T08:16:33.921Z,0.735
2022-10-23T08:17:39.893Z,0.885
2022-10-23T08:19:14.746Z,0.735
2022-10-23T08:20:17.699Z,0.735
2022-10-23T08:21:20.607Z,0.585
2022-10-23T08:22:55.368Z,0.735
2022-10-23T08:23:58.243Z,0.585
2022-10-23T08:25:01.151Z,0.585
2022-10-23T08:26:40.906Z,0.585
2022-10-23T08:27:44.125Z,0.585
2022-10-23T08:28:47.401Z,0.585
2022-10-23T08:30:22.011Z,0.585
2022-10-23T08:31:25.003Z,0.585
2022-10-23T08:32:27.918Z,0.585
2022-10-23T08:34:02.946Z,0.735
2022-10-23T08:35:05.682Z,0.585
2022-10-23T08:36:08.412Z,0.885
2022-10-23T08:37:43.453Z,0.585
2022-10-23T08:38:46.611Z,0.885
2022-10-23T08:39:51.386Z,0.735
2022-10-23T08:41:28.031Z,0.735
2022-10-23T08:42:30.835Z,0.885
2022-10-23T08:43:33.711Z,0.735
2022-10-23T08:45:08.951Z,0.885
2022-10-23T08:46:15.066Z,0.885
2022-10-23T08:47:17.991Z,0.885
2022-10-23T08:48:52.559Z,0.885
2022-10-23T08:49:55.485Z,1.02
2022-10-23T08:50:58.316Z,0.885
2022-10-23T08:52:36.572Z,0.885
2022-10-23T08:53:39.704Z,0.885
2022-10-23T08:54:42.499Z,0.885
2022-10-23T08:56:17.116Z,0.885
2022-10-23T08:57:20.141Z,0.585
2022-10-23T08:58:22.961Z,0.885
2022-10-23T08:59:57.707Z,0.885
2022-10-23T09:00:39.935Z,0.885
2022-10-23T09:01:44.419Z,0.885
2022-10-23T09:02:48.247Z,0.885
2022-10-23T09:04:22.971Z,0.885
2022-10-23T09:05:25.861Z,1.02
2022-10-23T09:06:28.668Z,1.02
2022-10-23T09:08:04.245Z,0.885
2022-10-23T09:09:07.100Z,1.02
2022-10-23T09:10:09.966Z,0.885
2022-10-23T09:11:44.577Z,0.885
2022-10-23T09:12:47.338Z,1.02
2022-10-23T09:13:50.242Z,1.02
2022-10-23T09:15:25.020Z,1.02
2022-10-23T09:16:27.917Z,1.02
2022-10-23T09:17:31.804Z,1.17
2022-10-23T09:19:10.002Z,1.02
2022-10-23T09:20:14.899Z,1.17
2022-10-23T09:21:17.658Z,1.17
2022-10-23T09:22:52.694Z,1.02
2022-10-23T09:23:55.883Z,1.02
2022-10-23T09:25:04.865Z,1.02
2022-10-23T09:26:40.414Z,1.17
2022-10-23T09:27:43.537Z,1.02
2022-10-23T09:28:46.733Z,1.02
2022-10-23T09:30:21.614Z,1.02
2022-10-23T09:31:24.579Z,1.02
2022-10-23T09:32:27.307Z,1.17
2022-10-23T09:34:02.252Z,1.17
2022-10-23T09:35:05.206Z,1.32
2022-10-23T09:36:08.041Z,1.32
2022-10-23T09:37:44.606Z,1.32
2022-10-23T09:38:47.707Z,1.32
2022-10-23T09:39:50.812Z,1.17
2022-10-23T09:41:25.711Z,1.17
2022-10-23T09:42:28.553Z,1.17
2022-10-23T09:43:31.439Z,1.32
2022-10-23T09:45:06.012Z,1.32
2022-10-23T09:46:08.923Z,1.17
2022-10-23T09:47:11.780Z,1.17
2022-10-23T09:48:47.576Z,1.17
2022-10-23T09:49:50.590Z,1.17
2022-10-23T09:50:53.320Z,1.02
2022-10-23T09:52:28.050Z,1.02
2022-10-23T09:53:31.053Z,1.02
2022-10-23T09:54:33.967Z,1.02
2022-10-23T09:56:08.637Z,1.02
2022-10-23T09:57:11.784Z,1.02
2022-10-23T09:58:15.286Z,1.02
2022-10-23T09:59:49.917Z,1.02
2022-10-23T10:00:40.741Z,1.02
2022-10-23T10:01:45.234Z,1.02
2022-10-23T10:02:48.422Z,1.17
2022-10-23T10:04:23.067Z,1.02
2022-10-23T10:05:25.937Z,0.885
2022-10-23T10:06:28.849Z,1.02
2022-10-23T10:08:05.429Z,0.885
2022-10-23T10:09:08.523Z,0.735
2022-10-23T10:10:11.512Z,0.585
2022-10-23T10:11:46.285Z,0.585
2022-10-23T10:12:49.382Z,0.435
2022-10-23T10:13:52.307Z,0.435
2022-10-23T10:15:27.022Z,0.435
2022-10-23T10:16:29.947Z,0.435
2022-10-23T10:17:32.796Z,0.435
2022-10-23T10:19:07.704Z,0.435
2022-10-23T10:20:16.592Z,0.585
2022-10-23T10:21:19.519Z,0.585
2022-10-23T10:22:54.369Z,0.585
2022-10-23T10:23:57.359Z,0.585
2022-10-23T10:25:00.229Z,0.735
2022-10-23T10:26:35.174Z,0.885
2022-10-23T10:27:37.946Z,0.885
2022-10-23T10:28:41.020Z,0.885
2022-10-23T10:30:15.894Z,0.885
2022-10-23T10:31:18.692Z,0.735
2022-10-23T10:32:21.631Z,0.735
2022-10-23T10:33:56.657Z,0.585
2022-10-23T10:34:59.580Z,0.585
2022-10-23T10:36:02.683Z,0.735
2022-10-23T10:37:37.701Z,0.735
2022-10-23T10:38:40.964Z,0.735
2022-10-23T10:39:44.019Z,0.885
2022-10-23T10:41:18.813Z,1.02
2022-10-23T10:42:21.625Z,1.02
2022-10-23T10:43:24.495Z,1.02
2022-10-23T10:44:59.287Z,1.17
2022-10-23T10:46:02.368Z,1.17
2022-10-23T10:47:05.245Z,1.17
2022-10-23T10:48:40.086Z,1.02
2022-10-23T10:49:42.999Z,1.17
2022-10-23T10:50:45.976Z,1.02
2022-10-23T10:52:20.561Z,1.17
2022-10-23T10:53:23.433Z,1.17
2022-10-23T10:54:26.382Z,1.17
2022-10-23T10:56:01.145Z,1.17
2022-10-23T10:57:04.062Z,1.02
2022-10-23T10:58:11.218Z,1.17
2022-10-23T10:59:45.820Z,1.32
2022-10-23T11:00:40.457Z,1.17
2022-10-23T11:01:45.182Z,1.32
2022-10-23T11:02:48.644Z,1.17
2022-10-23T11:04:23.193Z,1.17
2022-10-23T11:05:25.843Z,1.17
2022-10-23T11:06:28.841Z,1.17
2022-10-23T11:08:04.209Z,1.17
2022-10-23T11:09:43.044Z,1.02
2022-10-23T11:10:45.924Z,1.02
2022-10-23T11:12:20.655Z,1.02
2022-10-23T11:13:23.414Z,0.885
2022-10-23T11:14:26.283Z,0.885
2022-10-23T11:16:01.291Z,0.885
2022-10-23T11:17:04.297Z,0.885
2022-10-23T11:18:07.747Z,1.02
2022-10-23T11:19:42.743Z,1.02
2022-10-23T11:20:45.525Z,0.885
2022-10-23T11:21:48.481Z,1.02
2022-10-23T11:23:23.045Z,1.02
2022-10-23T11:24:27.193Z,1.02
2022-10-23T11:25:29.963Z,1.17
2022-10-23T11:27:04.903Z,1.32
2022-10-23T11:28:16.478Z,1.32
2022-10-23T11:29:19.318Z,1.32
2022-10-23T11:30:54.185Z,1.32
2022-10-23T11:31:57.140Z,1.32
2022-10-23T11:33:02.815Z,1.47
2022-10-23T11:34:37.368Z,1.47
2022-10-23T11:35:40.342Z,1.47
2022-10-23T11:36:43.320Z,1.47
2022-10-23T11:38:17.985Z,1.47
2022-10-23T11:39:20.899Z,1.47
2022-10-23T11:40:23.955Z,1.32
2022-10-23T11:41:59.763Z,1.32
2022-10-23T11:43:03.706Z,1.47
2022-10-23T11:44:06.579Z,1.32
2022-10-23T11:45:41.320Z,1.47
2022-10-23T11:46:44.155Z,1.32
2022-10-23T11:47:52.030Z,1.47
2022-10-23T11:49:26.974Z,1.47
2022-10-23T11:50:30.052Z,1.47
2022-10-23T11:51:33.324Z,1.47
2022-10-23T11:53:36.472Z,1.47
2022-10-23T11:54:39.356Z,1.47
2022-10-23T11:55:42.252Z,1.47
2022-10-23T11:57:21.864Z,1.32
2022-10-23T11:58:24.641Z,1.32
2022-10-23T11:59:27.486Z,1.47
2022-10-23T12:00:39.930Z,1.47
2022-10-23T12:01:43.422Z,1.47
2022-10-23T12:02:47.923Z,1.47
2022-10-23T12:04:22.828Z,1.47
2022-10-23T12:05:25.734Z,1.47
2022-10-23T12:06:28.875Z,1.47
2022-10-23T12:08:04.562Z,1.47
2022-10-23T12:09:07.844Z,1.47
2022-10-23T12:10:11.019Z,1.755
2022-10-23T12:11:50.273Z,1.755
2022-10-23T12:12:53.273Z,1.755
2022-10-23T12:13:56.269Z,1.47
2022-10-23T12:15:31.230Z,1.47
2022-10-23T12:16:34.089Z,1.755
2022-10-23T12:17:37.028Z,1.47
2022-10-23T12:19:12.050Z,1.47
2022-10-23T12:20:15.046Z,1.47
2022-10-23T12:21:18.053Z,1.47
2022-10-23T12:22:53.574Z,1.47
2022-10-23T12:24:01.553Z,1.47
2022-10-23T12:25:04.363Z,1.32
2022-10-23T12:26:39.133Z,1.32
2022-10-23T12:27:42.206Z,1.32
2022-10-23T12:28:45.199Z,1.32
2022-10-23T12:30:20.073Z,1.32
2022-10-23T12:31:22.927Z,1.47
2022-10-23T12:32:25.896Z,1.47
2022-10-23T12:34:00.744Z,1.47
2022-10-23T12:35:03.754Z,1.755
2022-10-23T12:36:06.724Z,1.47
2022-10-23T12:37:41.360Z,1.47
2022-10-23T12:38:50.910Z,1.47
2022-10-23T12:39:53.810Z,1.47
2022-10-23T12:41:28.699Z,1.47
2022-10-23T12:42:31.703Z,1.47
2022-10-23T12:43:34.699Z,1.47
2022-10-23T12:45:09.666Z,1.47
2022-10-23T12:46:15.426Z,1.47
2022-10-23T12:47:20.804Z,1.47
2022-10-23T12:48:55.878Z,1.47
2022-10-23T12:49:58.860Z,1.47
2022-10-23T12:51:01.778Z,1.47
2022-10-23T12:52:36.506Z,1.47
2022-10-23T12:53:39.638Z,1.47
2022-10-23T12:54:42.453Z,1.47
2022-10-23T12:56:17.149Z,1.32
2022-10-23T12:57:20.257Z,1.47
2022-10-23T12:58:22.940Z,1.47
2022-10-23T12:59:57.806Z,1.32
2022-10-23T13:00:40.834Z,1.32
2022-10-23T13:01:52.600Z,1.32
2022-10-23T13:02:56.730Z,1.32
2022-10-23T13:04:31.549Z,1.32
2022-10-23T13:05:34.826Z,1.32
2022-10-23T13:06:38.059Z,1.17
2022-10-23T13:08:13.595Z,1.17
2022-10-23T13:09:16.918Z,1.17
2022-10-23T13:10:19.916Z,1.02
2022-10-23T13:11:54.721Z,0.885
2022-10-23T13:12:57.973Z,0.735
2022-10-23T13:14:00.970Z,0.735
2022-10-23T13:15:35.713Z,0.735
2022-10-23T13:16:38.719Z,1.02
2022-10-23T13:17:42.122Z,0.885
2022-10-23T13:19:17.236Z,1.02
2022-10-23T13:20:20.008Z,1.02
2022-10-23T13:21:23.170Z,1.02
2022-10-23T13:23:05.052Z,1.17
2022-10-23T13:24:07.649Z,1.17
2022-10-23T13:25:10.678Z,1.02
2022-10-23T13:26:45.449Z,1.17
2022-10-23T13:27:49.069Z,1.32
2022-10-23T13:28:51.859Z,1.17
2022-10-23T13:30:32.351Z,1.17
2022-10-23T13:31:35.499Z,1.17
2022-10-23T13:32:38.383Z,1.32
2022-10-23T13:34:12.991Z,1.17
2022-10-23T13:35:46.087Z,1.17
2022-10-23T13:36:53.142Z,1.17
2022-10-23T13:38:28.273Z,1.17
2022-10-23T13:39:31.551Z,1.17
2022-10-23T13:40:34.651Z,1.17
2022-10-23T13:42:09.368Z,1.02
2022-10-23T13:43:12.727Z,1.17
2022-10-23T13:44:15.672Z,1.17
2022-10-23T13:45:50.482Z,1.02
2022-10-23T13:46:53.588Z,1.17
2022-10-23T13:47:57.025Z,1.02
2022-10-23T13:49:31.701Z,1.17
2022-10-23T13:50:34.905Z,1.17
2022-10-23T13:51:40.271Z,1.17
2022-10-23T13:53:17.487Z,1.02
2022-10-23T13:54:20.465Z,1.02
2022-10-23T13:55:23.342Z,1.02
2022-10-23T13:57:02.181Z,1.02
2022-10-23T13:58:05.481Z,1.02
2022-10-23T13:59:08.362Z,1.02
2022-10-23T14:00:40.436Z,1.02
2022-10-23T14:01:44.468Z,1.02
2022-10-23T14:02:48.712Z,0.885
2022-10-23T14:04:23.430Z,1.02
2022-10-23T14:05:26.542Z,1.02
2022-10-23T14:06:29.326Z,1.02
2022-10-23T14:08:05.158Z,1.02
2022-10-23T14:09:07.807Z,1.02
2022-10-23T14:10:13.499Z,1.02
2022-10-23T14:11:48.650Z,1.02
2022-10-23T14:12:52.413Z,0.885
2022-10-23T14:13:55.403Z,1.02
2022-10-23T14:15:30.080Z,1.02
2022-10-23T14:16:32.867Z,1.02
2022-10-23T14:17:35.751Z,1.02
2022-10-23T14:19:17.080Z,0.885
2022-10-23T14:20:25.708Z,0.435
2022-10-23T14:21:30.603Z,0.885
2022-10-23T14:23:05.823Z,0
2022-10-23T14:24:08.988Z,0.885
2022-10-23T14:25:12.161Z,0.885
2022-10-23T14:26:46.949Z,0.885
2022-10-23T14:27:49.842Z,0.885
2022-10-23T14:28:52.729Z,0.885
2022-10-23T14:30:37.272Z,0.735
2022-10-23T14:31:40.016Z,0.735
2022-10-23T14:32:43.384Z,0.735
2022-10-23T14:34:18.671Z,0.735
2022-10-23T14:35:21.923Z,0.735
2022-10-23T14:36:28.291Z,0.735
2022-10-23T14:38:21.937Z,0.735
2022-10-23T14:39:24.813Z,0.735
2022-10-23T14:40:27.883Z,0.585
2022-10-23T14:42:02.603Z,0.585
2022-10-23T14:43:05.717Z,0.585
2022-10-23T14:44:08.429Z,0.585
2022-10-23T14:45:43.465Z,0.585
2022-10-23T14:46:46.392Z,0.585
2022-10-23T14:47:49.738Z,0.585
2022-10-23T14:49:30.492Z,0.585
2022-10-23T14:50:33.551Z,0.585
2022-10-23T14:51:36.438Z,0.585
2022-10-23T14:53:12.367Z,0.585
2022-10-23T14:54:18.878Z,0.585
2022-10-23T14:55:21.765Z,0.585
2022-10-23T14:56:56.447Z,0.585
2022-10-23T14:58:00.089Z,0.585
2022-10-23T14:59:03.181Z,0.585
2022-10-23T15:00:39.907Z,0.585
2022-10-23T15:01:50.694Z,0.585
2022-10-23T15:02:54.417Z,0.585
2022-10-23T15:04:29.163Z,0.435
2022-10-23T15:05:31.956Z,0.435
2022-10-23T15:06:40.748Z,0.435
2022-10-23T15:08:16.200Z,0.435
2022-10-23T15:09:19.291Z,0.435
2022-10-23T15:10:22.700Z,0.435
2022-10-23T15:11:57.652Z,0.435
2022-10-23T15:13:00.903Z,0.435
2022-10-23T15:14:03.885Z,0.435
2022-10-23T15:15:38.737Z,0.435
2022-10-23T15:16:41.788Z,0.435
2022-10-23T15:17:45.144Z,0.435
2022-10-23T15:19:24.584Z,0
2022-10-23T15:20:27.681Z,0.435
2022-10-23T15:21:30.591Z,0
2022-10-23T15:23:06.052Z,0.435
2022-10-23T15:24:08.967Z,0
2022-10-23T15:25:16.870Z,0
2022-10-23T15:26:52.819Z,0
2022-10-23T15:27:56.110Z,0
2022-10-23T15:28:59.112Z,0
2022-10-23T15:30:33.758Z,0
2022-10-23T15:31:36.814Z,0
2022-10-23T15:32:39.864Z,0
2022-10-23T15:34:14.670Z,0
2022-10-23T15:35:17.777Z,0
2022-10-23T15:36:20.878Z,0
2022-10-23T15:37:56.310Z,0
2022-10-23T15:38:59.261Z,0
2022-10-23T15:40:06.902Z,0
2022-10-23T15:41:41.704Z,0
2022-10-23T15:42:45.358Z,0
2022-10-23T15:45:26.569Z,0
2022-10-23T15:46:31.904Z,0
2022-10-23T15:47:34.884Z,0
2022-10-23T15:49:09.682Z,0
2022-10-23T15:50:12.876Z,0
2022-10-23T15:51:15.763Z,0
2022-10-23T15:52:51.227Z,0
2022-10-23T15:53:54.286Z,0
2022-10-23T15:55:01.311Z,0
2022-10-23T15:56:36.015Z,0
2022-10-23T15:57:39.041Z,0
2022-10-23T15:58:41.912Z,0
2022-10-23T16:00:44.095Z,0
2022-10-23T16:01:48.419Z,0
2022-10-23T16:02:53.329Z,0
2022-10-23T16:04:28.014Z,0
2022-10-23T16:06:09.635Z,0
2022-10-23T16:07:12.840Z,0
2022-10-23T16:08:15.732Z,0
2022-10-23T16:09:50.939Z,0
2022-10-23T16:10:54.063Z,0
2022-10-23T16:11:57.034Z,0
2022-10-23T16:13:31.981Z,0
2022-10-23T16:14:35.009Z,0
2022-10-23T16:15:38.284Z,0
2022-10-23T16:17:13.722Z,0
2022-10-23T16:18:16.746Z,0
2022-10-23T16:19:19.592Z,0
2022-10-23T16:20:54.603Z,0
2022-10-23T16:21:57.591Z,0
2022-10-23T16:23:06.646Z,0
2022-10-23T16:24:41.416Z,0
2022-10-23T16:25:44.441Z,0
2022-10-23T16:26:47.579Z,0
2022-10-23T16:28:22.276Z,0
2022-10-23T16:29:25.185Z,0
2022-10-23T16:30:28.058Z,0
2022-10-23T16:32:02.930Z,0
2022-10-23T16:33:06.134Z,0
2022-10-23T16:34:09.281Z,0
2022-10-23T16:35:44.086Z,0
2022-10-23T16:36:46.985Z,0
2022-10-23T16:37:50.525Z,0
2022-10-23T16:39:25.127Z,0
2022-10-23T16:40:28.089Z,0
2022-10-23T16:41:35.435Z,0
2022-10-23T16:43:10.508Z,0
2022-10-23T16:44:13.527Z,0
2022-10-23T16:45:16.473Z,0
2022-10-23T16:46:52.065Z,0
2022-10-23T16:47:54.871Z,0
2022-10-23T16:48:57.544Z,0
2022-10-23T16:50:32.574Z,0
2022-10-23T16:51:35.360Z,0
2022-10-23T16:52:38.256Z,0
2022-10-23T16:54:13.261Z,0
2022-10-23T16:55:15.997Z,0
2022-10-23T16:56:18.980Z,0
2022-10-23T16:57:53.844Z,0
2022-10-23T16:58:56.784Z,0
2022-10-23T16:59:59.607Z,0
2022-10-23T17:00:41.063Z,0
2022-10-23T17:01:45.375Z,0
2022-10-23T17:02:50.171Z,0
2022-10-23T17:04:25.032Z,0
2022-10-23T17:05:27.724Z,0
2022-10-23T17:06:33.974Z,0
2022-10-23T17:08:09.068Z,0
2022-10-23T17:09:11.935Z,0
2022-10-23T17:10:14.959Z,0
2022-10-23T17:11:50.008Z,0
2022-10-23T17:12:52.990Z,0
2022-10-23T17:14:00.833Z,0
2022-10-23T17:15:35.767Z,0
2022-10-23T17:16:38.653Z,0
2022-10-23T17:17:41.716Z,0